KAVQ

Marana Regional Airport

Marana, Arizona, USA
METAR KAVQ 202355Z AUTO 36009KT 10SM CLR 38/12 A2987 RMK AO2 T03780121
Observed Flight Rules
Aug-20 @ 23:55 UTC (14 minutes ago) Visual Flight Rules
Wind Visibility Clouds
360° at 9 knots 10 miles
  • Clear skies
Temperatures Readings
Current 38°C / 100°F
Dewpoint 12°C / 54°F
Humidity 21%
Altimeter 29.87" Hg
Pressure 1012 hPa
Elevation 619
METAR KAVQ 202355Z AUTO 36009KT 10SM CLR 38/12 A2987 RMK AO2 T03780121
Observed Flight Rules
Aug-20 @ 23:55 UTC
(14 minutes ago)
VFR
Wind Visibility
360° at 9 knots 10 miles
Clouds
  • Clear skies
Temperature Dewpoint
38°C / 100°F 12°C / 54°F
Humidity Altimeter Pressure
21% 29.87" Hg 1012 hPa